sensor_id;sensor_type;location;lat;lon;timestamp;P1;durP1;ratioP1;P2;durP2;ratioP2
60610;SDS011;46439;51.164;13.572;2023-05-21T00:01:23;23.60;;;16.60;;
60610;SDS011;46439;51.164;13.572;2023-05-21T00:03:51;22.20;;;15.00;;
60610;SDS011;46439;51.164;13.572;2023-05-21T00:06:21;22.40;;;15.90;;
60610;SDS011;46439;51.164;13.572;2023-05-21T00:08:49;22.70;;;16.00;;
60610;SDS011;46439;51.164;13.572;2023-05-21T00:11:18;22.80;;;16.00;;
60610;SDS011;46439;51.164;13.572;2023-05-21T00:13:48;21.10;;;16.00;;
60610;SDS011;46439;51.164;13.572;2023-05-21T00:16:17;22.50;;;15.80;;
60610;SDS011;46439;51.164;13.572;2023-05-21T00:18:45;22.60;;;17.00;;
60610;SDS011;46439;51.164;13.572;2023-05-21T00:21:19;21.70;;;16.10;;
60610;SDS011;46439;51.164;13.572;2023-05-21T00:23:48;23.90;;;16.40;;
60610;SDS011;46439;51.164;13.572;2023-05-21T00:26:17;21.30;;;16.60;;
60610;SDS011;46439;51.164;13.572;2023-05-21T00:28:45;23.70;;;16.70;;
60610;SDS011;46439;51.164;13.572;2023-05-21T00:31:14;23.40;;;16.70;;
60610;SDS011;46439;51.164;13.572;2023-05-21T00:33:44;22.10;;;16.10;;
60610;SDS011;46439;51.164;13.572;2023-05-21T00:36:13;23.60;;;16.50;;
60610;SDS011;46439;51.164;13.572;2023-05-21T00:38:42;24.40;;;17.30;;
60610;SDS011;46439;51.164;13.572;2023-05-21T00:41:11;23.70;;;16.60;;
60610;SDS011;46439;51.164;13.572;2023-05-21T00:43:40;22.20;;;16.50;;
60610;SDS011;46439;51.164;13.572;2023-05-21T00:46:12;22.10;;;16.70;;
60610;SDS011;46439;51.164;13.572;2023-05-21T00:48:43;23.60;;;16.60;;
60610;SDS011;46439;51.164;13.572;2023-05-21T00:51:12;23.10;;;16.70;;
60610;SDS011;46439;51.164;13.572;2023-05-21T00:53:43;23.60;;;15.80;;
60610;SDS011;46439;51.164;13.572;2023-05-21T00:56:12;23.10;;;16.00;;
60610;SDS011;46439;51.164;13.572;2023-05-21T00:58:40;24.10;;;16.60;;
60610;SDS011;46439;51.164;13.572;2023-05-21T01:01:09;22.50;;;16.20;;
60610;SDS011;46439;51.164;13.572;2023-05-21T01:03:39;23.70;;;16.80;;
60610;SDS011;46439;51.164;13.572;2023-05-21T01:06:08;22.40;;;16.00;;
60610;SDS011;46439;51.164;13.572;2023-05-21T01:08:39;24.20;;;16.60;;
60610;SDS011;46439;51.164;13.572;2023-05-21T01:11:09;24.00;;;16.80;;
60610;SDS011;46439;51.164;13.572;2023-05-21T01:13:38;25.40;;;17.50;;
60610;SDS011;46439;51.164;13.572;2023-05-21T01:16:08;25.20;;;16.60;;
60610;SDS011;46439;51.164;13.572;2023-05-21T01:18:39;22.00;;;16.60;;
60610;SDS011;46439;51.164;13.572;2023-05-21T01:21:10;23.60;;;16.60;;
60610;SDS011;46439;51.164;13.572;2023-05-21T01:23:47;22.70;;;16.90;;
60610;SDS011;46439;51.164;13.572;2023-05-21T01:26:16;22.10;;;17.00;;
60610;SDS011;46439;51.164;13.572;2023-05-21T01:28:44;24.10;;;16.40;;
60610;SDS011;46439;51.164;13.572;2023-05-21T01:31:16;23.10;;;16.80;;
60610;SDS011;46439;51.164;13.572;2023-05-21T01:33:52;22.80;;;16.60;;
60610;SDS011;46439;51.164;13.572;2023-05-21T01:36:28;22.80;;;16.30;;
60610;SDS011;46439;51.164;13.572;2023-05-21T01:39:06;24.30;;;16.60;;
60610;SDS011;46439;51.164;13.572;2023-05-21T01:41:43;22.50;;;17.00;;
60610;SDS011;46439;51.164;13.572;2023-05-21T01:44:13;23.50;;;16.50;;
60610;SDS011;46439;51.164;13.572;2023-05-21T01:46:45;25.40;;;16.70;;
60610;SDS011;46439;51.164;13.572;2023-05-21T01:49:15;22.30;;;16.60;;
60610;SDS011;46439;51.164;13.572;2023-05-21T01:51:45;21.70;;;16.40;;
60610;SDS011;46439;51.164;13.572;2023-05-21T01:54:14;22.30;;;15.90;;
60610;SDS011;46439;51.164;13.572;2023-05-21T01:56:43;23.20;;;16.30;;
60610;SDS011;46439;51.164;13.572;2023-05-21T01:59:13;22.00;;;16.40;;
60610;SDS011;46439;51.164;13.572;2023-05-21T02:01:42;21.40;;;16.00;;
60610;SDS011;46439;51.164;13.572;2023-05-21T02:04:11;22.70;;;16.10;;
60610;SDS011;46439;51.164;13.572;2023-05-21T02:06:39;21.50;;;16.20;;
60610;SDS011;46439;51.164;13.572;2023-05-21T02:09:08;21.00;;;15.90;;
60610;SDS011;46439;51.164;13.572;2023-05-21T02:11:36;22.90;;;15.90;;
60610;SDS011;46439;51.164;13.572;2023-05-21T02:14:05;25.40;;;17.40;;
60610;SDS011;46439;51.164;13.572;2023-05-21T02:16:36;23.30;;;16.00;;
60610;SDS011;46439;51.164;13.572;2023-05-21T02:19:04;24.50;;;16.20;;
60610;SDS011;46439;51.164;13.572;2023-05-21T02:21:36;21.00;;;15.80;;
60610;SDS011;46439;51.164;13.572;2023-05-21T02:24:05;24.40;;;17.00;;
60610;SDS011;46439;51.164;13.572;2023-05-21T02:26:34;23.70;;;16.90;;
60610;SDS011;46439;51.164;13.572;2023-05-21T02:29:03;22.60;;;16.20;;
60610;SDS011;46439;51.164;13.572;2023-05-21T02:31:31;23.50;;;16.00;;
60610;SDS011;46439;51.164;13.572;2023-05-21T02:34:00;22.20;;;15.40;;
60610;SDS011;46439;51.164;13.572;2023-05-21T02:36:28;23.50;;;16.40;;
60610;SDS011;46439;51.164;13.572;2023-05-21T02:38:58;22.60;;;16.20;;
60610;SDS011;46439;51.164;13.572;2023-05-21T02:41:27;22.90;;;16.30;;
60610;SDS011;46439;51.164;13.572;2023-05-21T02:43:55;21.80;;;15.90;;
60610;SDS011;46439;51.164;13.572;2023-05-21T02:46:24;22.20;;;16.80;;
60610;SDS011;46439;51.164;13.572;2023-05-21T02:48:52;23.20;;;16.30;;
60610;SDS011;46439;51.164;13.572;2023-05-21T02:51:21;23.50;;;17.00;;
60610;SDS011;46439;51.164;13.572;2023-05-21T02:53:49;23.70;;;16.60;;
60610;SDS011;46439;51.164;13.572;2023-05-21T02:56:18;22.00;;;16.60;;
60610;SDS011;46439;51.164;13.572;2023-05-21T02:58:46;21.80;;;16.30;;
60610;SDS011;46439;51.164;13.572;2023-05-21T03:01:14;23.30;;;16.10;;
60610;SDS011;46439;51.164;13.572;2023-05-21T03:03:43;23.40;;;16.60;;
60610;SDS011;46439;51.164;13.572;2023-05-21T03:06:11;24.70;;;16.30;;
60610;SDS011;46439;51.164;13.572;2023-05-21T03:08:42;23.30;;;16.60;;
60610;SDS011;46439;51.164;13.572;2023-05-21T03:11:10;21.10;;;16.40;;
60610;SDS011;46439;51.164;13.572;2023-05-21T03:13:38;25.10;;;17.10;;
60610;SDS011;46439;51.164;13.572;2023-05-21T03:16:08;24.80;;;16.70;;
60610;SDS011;46439;51.164;13.572;2023-05-21T03:18:37;24.10;;;17.10;;
60610;SDS011;46439;51.164;13.572;2023-05-21T03:21:06;23.20;;;17.30;;
60610;SDS011;46439;51.164;13.572;2023-05-21T03:23:34;22.70;;;16.60;;
60610;SDS011;46439;51.164;13.572;2023-05-21T03:26:03;25.60;;;16.70;;
60610;SDS011;46439;51.164;13.572;2023-05-21T03:28:32;22.60;;;16.30;;
60610;SDS011;46439;51.164;13.572;2023-05-21T03:31:00;20.00;;;12.40;;
60610;SDS011;46439;51.164;13.572;2023-05-21T03:33:29;24.20;;;16.50;;
60610;SDS011;46439;51.164;13.572;2023-05-21T03:35:57;22.30;;;17.10;;
60610;SDS011;46439;51.164;13.572;2023-05-21T03:38:26;22.20;;;16.60;;
60610;SDS011;46439;51.164;13.572;2023-05-21T03:40:55;23.20;;;17.50;;
60610;SDS011;46439;51.164;13.572;2023-05-21T03:43:23;23.10;;;16.60;;
60610;SDS011;46439;51.164;13.572;2023-05-21T03:45:53;22.50;;;17.30;;
60610;SDS011;46439;51.164;13.572;2023-05-21T03:48:21;25.50;;;16.90;;
60610;SDS011;46439;51.164;13.572;2023-05-21T03:50:50;22.10;;;16.70;;
60610;SDS011;46439;51.164;13.572;2023-05-21T03:53:19;26.10;;;17.60;;
60610;SDS011;46439;51.164;13.572;2023-05-21T03:55:47;24.00;;;17.40;;
60610;SDS011;46439;51.164;13.572;2023-05-21T03:58:20;22.50;;;17.00;;
60610;SDS011;46439;51.164;13.572;2023-05-21T04:00:49;24.30;;;17.50;;
60610;SDS011;46439;51.164;13.572;2023-05-21T04:03:18;23.50;;;16.90;;
60610;SDS011;46439;51.164;13.572;2023-05-21T04:05:46;24.00;;;17.30;;
60610;SDS011;46439;51.164;13.572;2023-05-21T04:08:15;25.20;;;16.60;;
60610;SDS011;46439;51.164;13.572;2023-05-21T04:10:43;24.30;;;17.00;;
60610;SDS011;46439;51.164;13.572;2023-05-21T04:13:11;26.90;;;17.90;;
60610;SDS011;46439;51.164;13.572;2023-05-21T04:15:40;24.30;;;17.10;;
60610;SDS011;46439;51.164;13.572;2023-05-21T04:18:10;21.50;;;16.10;;
60610;SDS011;46439;51.164;13.572;2023-05-21T04:20:39;23.40;;;17.40;;
60610;SDS011;46439;51.164;13.572;2023-05-21T04:23:08;23.10;;;16.30;;
60610;SDS011;46439;51.164;13.572;2023-05-21T04:25:37;22.10;;;16.40;;
60610;SDS011;46439;51.164;13.572;2023-05-21T04:28:05;25.60;;;17.00;;
60610;SDS011;46439;51.164;13.572;2023-05-21T04:30:34;21.60;;;16.20;;
60610;SDS011;46439;51.164;13.572;2023-05-21T04:33:02;23.80;;;15.90;;
60610;SDS011;46439;51.164;13.572;2023-05-21T04:35:31;24.80;;;17.30;;
60610;SDS011;46439;51.164;13.572;2023-05-21T04:38:00;24.40;;;16.90;;
60610;SDS011;46439;51.164;13.572;2023-05-21T04:40:31;25.10;;;16.40;;
60610;SDS011;46439;51.164;13.572;2023-05-21T04:43:00;26.00;;;16.60;;
60610;SDS011;46439;51.164;13.572;2023-05-21T04:45:28;24.90;;;17.70;;
60610;SDS011;46439;51.164;13.572;2023-05-21T04:47:56;27.20;;;18.20;;
60610;SDS011;46439;51.164;13.572;2023-05-21T04:50:25;23.90;;;16.70;;
60610;SDS011;46439;51.164;13.572;2023-05-21T04:52:56;22.00;;;16.50;;
60610;SDS011;46439;51.164;13.572;2023-05-21T04:55:25;21.30;;;16.90;;
60610;SDS011;46439;51.164;13.572;2023-05-21T04:57:54;21.70;;;17.00;;
60610;SDS011;46439;51.164;13.572;2023-05-21T05:00:22;22.00;;;16.20;;
60610;SDS011;46439;51.164;13.572;2023-05-21T05:02:51;22.80;;;16.60;;
60610;SDS011;46439;51.164;13.572;2023-05-21T05:05:20;21.90;;;16.20;;
60610;SDS011;46439;51.164;13.572;2023-05-21T05:07:48;22.70;;;16.80;;
60610;SDS011;46439;51.164;13.572;2023-05-21T05:10:17;23.40;;;16.90;;
60610;SDS011;46439;51.164;13.572;2023-05-21T05:12:45;22.60;;;15.80;;
60610;SDS011;46439;51.164;13.572;2023-05-21T05:15:14;20.70;;;15.20;;
60610;SDS011;46439;51.164;13.572;2023-05-21T05:17:42;22.30;;;15.90;;
60610;SDS011;46439;51.164;13.572;2023-05-21T05:20:13;19.60;;;15.50;;
60610;SDS011;46439;51.164;13.572;2023-05-21T05:22:42;21.60;;;15.70;;
60610;SDS011;46439;51.164;13.572;2023-05-21T05:25:10;21.40;;;15.90;;
60610;SDS011;46439;51.164;13.572;2023-05-21T05:27:39;21.80;;;14.80;;
60610;SDS011;46439;51.164;13.572;2023-05-21T05:30:08;23.00;;;15.30;;
60610;SDS011;46439;51.164;13.572;2023-05-21T05:32:37;19.50;;;14.90;;
60610;SDS011;46439;51.164;13.572;2023-05-21T05:35:07;22.50;;;15.50;;
60610;SDS011;46439;51.164;13.572;2023-05-21T05:37:36;20.10;;;15.60;;
60610;SDS011;46439;51.164;13.572;2023-05-21T05:40:06;24.60;;;15.60;;
60610;SDS011;46439;51.164;13.572;2023-05-21T05:42:35;21.00;;;15.20;;
60610;SDS011;46439;51.164;13.572;2023-05-21T05:45:03;20.10;;;14.90;;
60610;SDS011;46439;51.164;13.572;2023-05-21T05:47:33;20.00;;;15.70;;
60610;SDS011;46439;51.164;13.572;2023-05-21T05:50:01;21.60;;;15.60;;
60610;SDS011;46439;51.164;13.572;2023-05-21T05:52:30;20.10;;;14.90;;
60610;SDS011;46439;51.164;13.572;2023-05-21T05:54:59;19.50;;;14.80;;
60610;SDS011;46439;51.164;13.572;2023-05-21T05:57:28;20.90;;;15.40;;
60610;SDS011;46439;51.164;13.572;2023-05-21T05:59:56;22.00;;;14.90;;
60610;SDS011;46439;51.164;13.572;2023-05-21T06:02:25;21.90;;;15.50;;
60610;SDS011;46439;51.164;13.572;2023-05-21T06:04:53;17.40;;;14.70;;
60610;SDS011;46439;51.164;13.572;2023-05-21T06:07:22;18.70;;;14.90;;
60610;SDS011;46439;51.164;13.572;2023-05-21T06:09:50;20.40;;;15.20;;
60610;SDS011;46439;51.164;13.572;2023-05-21T06:12:19;22.00;;;15.60;;
60610;SDS011;46439;51.164;13.572;2023-05-21T06:14:47;22.40;;;16.00;;
60610;SDS011;46439;51.164;13.572;2023-05-21T06:17:16;18.80;;;15.30;;
60610;SDS011;46439;51.164;13.572;2023-05-21T06:19:44;18.80;;;14.90;;
60610;SDS011;46439;51.164;13.572;2023-05-21T06:22:13;20.80;;;14.80;;
60610;SDS011;46439;51.164;13.572;2023-05-21T06:24:41;20.30;;;15.60;;
60610;SDS011;46439;51.164;13.572;2023-05-21T06:27:10;20.40;;;15.40;;
60610;SDS011;46439;51.164;13.572;2023-05-21T06:29:39;19.70;;;15.20;;
60610;SDS011;46439;51.164;13.572;2023-05-21T06:32:08;21.10;;;14.80;;
60610;SDS011;46439;51.164;13.572;2023-05-21T06:34:36;19.80;;;14.60;;
60610;SDS011;46439;51.164;13.572;2023-05-21T06:37:05;17.40;;;14.60;;
60610;SDS011;46439;51.164;13.572;2023-05-21T06:39:33;20.00;;;15.30;;
60610;SDS011;46439;51.164;13.572;2023-05-21T06:42:02;18.90;;;14.50;;
60610;SDS011;46439;51.164;13.572;2023-05-21T06:44:30;20.40;;;14.50;;
60610;SDS011;46439;51.164;13.572;2023-05-21T06:46:59;18.80;;;14.90;;
60610;SDS011;46439;51.164;13.572;2023-05-21T06:49:27;21.50;;;17.80;;
60610;SDS011;46439;51.164;13.572;2023-05-21T06:51:56;21.60;;;15.50;;
60610;SDS011;46439;51.164;13.572;2023-05-21T06:54:24;19.70;;;16.20;;
60610;SDS011;46439;51.164;13.572;2023-05-21T06:56:53;22.60;;;17.00;;
60610;SDS011;46439;51.164;13.572;2023-05-21T06:59:21;20.00;;;15.80;;
60610;SDS011;46439;51.164;13.572;2023-05-21T07:01:50;24.30;;;15.40;;
60610;SDS011;46439;51.164;13.572;2023-05-21T07:04:18;18.90;;;14.60;;
60610;SDS011;46439;51.164;13.572;2023-05-21T07:06:46;20.10;;;15.00;;
60610;SDS011;46439;51.164;13.572;2023-05-21T07:09:15;20.10;;;14.90;;
60610;SDS011;46439;51.164;13.572;2023-05-21T07:11:44;19.30;;;13.10;;
60610;SDS011;46439;51.164;13.572;2023-05-21T07:14:13;16.20;;;12.80;;
60610;SDS011;46439;51.164;13.572;2023-05-21T07:16:41;16.50;;;12.90;;
60610;SDS011;46439;51.164;13.572;2023-05-21T07:19:09;17.50;;;12.30;;
60610;SDS011;46439;51.164;13.572;2023-05-21T07:21:38;18.60;;;14.30;;
60610;SDS011;46439;51.164;13.572;2023-05-21T07:24:06;24.10;;;15.50;;
60610;SDS011;46439;51.164;13.572;2023-05-21T07:26:35;18.40;;;15.40;;
60610;SDS011;46439;51.164;13.572;2023-05-21T07:29:03;19.60;;;16.10;;
60610;SDS011;46439;51.164;13.572;2023-05-21T07:31:31;20.10;;;15.80;;
60610;SDS011;46439;51.164;13.572;2023-05-21T07:34:00;26.80;;;16.10;;
60610;SDS011;46439;51.164;13.572;2023-05-21T07:36:29;19.90;;;15.10;;
60610;SDS011;46439;51.164;13.572;2023-05-21T07:38:59;20.00;;;16.70;;
60610;SDS011;46439;51.164;13.572;2023-05-21T07:41:27;21.20;;;15.60;;
60610;SDS011;46439;51.164;13.572;2023-05-21T07:43:56;21.60;;;15.40;;
60610;SDS011;46439;51.164;13.572;2023-05-21T07:46:26;20.00;;;15.30;;
60610;SDS011;46439;51.164;13.572;2023-05-21T07:48:55;18.50;;;15.20;;
60610;SDS011;46439;51.164;13.572;2023-05-21T07:51:23;19.50;;;15.50;;
60610;SDS011;46439;51.164;13.572;2023-05-21T07:53:52;18.90;;;15.40;;
60610;SDS011;46439;51.164;13.572;2023-05-21T07:56:22;19.30;;;15.80;;
60610;SDS011;46439;51.164;13.572;2023-05-21T07:58:50;23.80;;;16.80;;
60610;SDS011;46439;51.164;13.572;2023-05-21T08:01:19;20.40;;;15.70;;
60610;SDS011;46439;51.164;13.572;2023-05-21T08:03:48;19.60;;;16.20;;
60610;SDS011;46439;51.164;13.572;2023-05-21T08:06:16;17.60;;;14.80;;
60610;SDS011;46439;51.164;13.572;2023-05-21T08:08:45;18.80;;;14.70;;
60610;SDS011;46439;51.164;13.572;2023-05-21T08:11:14;20.90;;;15.40;;
60610;SDS011;46439;51.164;13.572;2023-05-21T08:13:43;18.30;;;14.60;;
60610;SDS011;46439;51.164;13.572;2023-05-21T08:16:12;23.10;;;15.20;;
60610;SDS011;46439;51.164;13.572;2023-05-21T08:18:41;20.60;;;15.10;;
60610;SDS011;46439;51.164;13.572;2023-05-21T08:21:09;18.70;;;15.30;;
60610;SDS011;46439;51.164;13.572;2023-05-21T08:23:38;18.90;;;14.40;;
60610;SDS011;46439;51.164;13.572;2023-05-21T08:26:06;17.00;;;13.80;;
60610;SDS011;46439;51.164;13.572;2023-05-21T08:28:34;17.30;;;13.80;;
60610;SDS011;46439;51.164;13.572;2023-05-21T08:31:04;17.60;;;13.20;;
60610;SDS011;46439;51.164;13.572;2023-05-21T08:33:33;16.40;;;13.50;;
60610;SDS011;46439;51.164;13.572;2023-05-21T08:36:05;15.70;;;13.00;;
60610;SDS011;46439;51.164;13.572;2023-05-21T08:38:34;17.70;;;12.40;;
60610;SDS011;46439;51.164;13.572;2023-05-21T08:41:03;15.10;;;12.60;;
60610;SDS011;46439;51.164;13.572;2023-05-21T08:43:35;17.40;;;12.30;;
60610;SDS011;46439;51.164;13.572;2023-05-21T08:46:05;15.00;;;12.70;;
60610;SDS011;46439;51.164;13.572;2023-05-21T08:48:35;17.20;;;12.70;;
60610;SDS011;46439;51.164;13.572;2023-05-21T08:51:04;15.20;;;13.00;;
60610;SDS011;46439;51.164;13.572;2023-05-21T08:53:33;17.60;;;13.20;;
60610;SDS011;46439;51.164;13.572;2023-05-21T08:56:02;15.60;;;12.60;;
60610;SDS011;46439;51.164;13.572;2023-05-21T08:58:32;14.10;;;12.50;;
60610;SDS011;46439;51.164;13.572;2023-05-21T09:01:02;15.10;;;12.30;;
60610;SDS011;46439;51.164;13.572;2023-05-21T09:03:31;14.30;;;12.60;;
60610;SDS011;46439;51.164;13.572;2023-05-21T09:06:05;14.10;;;12.00;;
60610;SDS011;46439;51.164;13.572;2023-05-21T09:08:37;16.30;;;11.90;;
60610;SDS011;46439;51.164;13.572;2023-05-21T09:11:09;16.00;;;13.00;;
60610;SDS011;46439;51.164;13.572;2023-05-21T09:13:38;19.50;;;12.20;;
60610;SDS011;46439;51.164;13.572;2023-05-21T09:16:08;15.30;;;11.30;;
60610;SDS011;46439;51.164;13.572;2023-05-21T09:18:36;17.70;;;12.30;;
60610;SDS011;46439;51.164;13.572;2023-05-21T09:23:55;16.10;;;13.90;;
60610;SDS011;46439;51.164;13.572;2023-05-21T09:26:24;15.50;;;13.70;;
60610;SDS011;46439;51.164;13.572;2023-05-21T09:28:56;18.00;;;13.40;;
60610;SDS011;46439;51.164;13.572;2023-05-21T09:31:25;14.80;;;12.90;;
60610;SDS011;46439;51.164;13.572;2023-05-21T09:33:55;15.90;;;12.70;;
60610;SDS011;46439;51.164;13.572;2023-05-21T09:36:23;14.10;;;11.60;;
60610;SDS011;46439;51.164;13.572;2023-05-21T09:38:52;17.30;;;12.50;;
60610;SDS011;46439;51.164;13.572;2023-05-21T09:41:21;13.00;;;11.20;;
60610;SDS011;46439;51.164;13.572;2023-05-21T09:44:02;13.40;;;11.90;;
60610;SDS011;46439;51.164;13.572;2023-05-21T09:46:37;15.90;;;11.40;;
60610;SDS011;46439;51.164;13.572;2023-05-21T09:49:06;14.10;;;12.30;;
60610;SDS011;46439;51.164;13.572;2023-05-21T09:51:52;15.00;;;12.20;;
60610;SDS011;46439;51.164;13.572;2023-05-21T09:54:23;14.80;;;12.40;;
60610;SDS011;46439;51.164;13.572;2023-05-21T09:56:56;13.30;;;11.70;;
60610;SDS011;46439;51.164;13.572;2023-05-21T09:59:29;15.40;;;12.00;;
60610;SDS011;46439;51.164;13.572;2023-05-21T10:02:10;13.70;;;12.30;;
60610;SDS011;46439;51.164;13.572;2023-05-21T10:04:44;17.10;;;11.80;;
60610;SDS011;46439;51.164;13.572;2023-05-21T10:07:16;14.20;;;11.20;;
60610;SDS011;46439;51.164;13.572;2023-05-21T10:09:51;14.00;;;11.30;;
60610;SDS011;46439;51.164;13.572;2023-05-21T10:12:22;14.70;;;11.40;;
60610;SDS011;46439;51.164;13.572;2023-05-21T10:14:56;12.30;;;10.70;;
60610;SDS011;46439;51.164;13.572;2023-05-21T10:17:29;13.20;;;10.80;;
60610;SDS011;46439;51.164;13.572;2023-05-21T10:19:57;13.90;;;11.60;;
60610;SDS011;46439;51.164;13.572;2023-05-21T10:22:27;11.80;;;10.40;;
60610;SDS011;46439;51.164;13.572;2023-05-21T10:24:56;12.20;;;10.90;;
60610;SDS011;46439;51.164;13.572;2023-05-21T10:27:26;15.20;;;10.80;;
60610;SDS011;46439;51.164;13.572;2023-05-21T10:29:56;12.30;;;10.40;;
60610;SDS011;46439;51.164;13.572;2023-05-21T10:32:27;14.00;;;11.00;;
60610;SDS011;46439;51.164;13.572;2023-05-21T10:34:56;14.80;;;10.80;;
60610;SDS011;46439;51.164;13.572;2023-05-21T10:37:25;11.80;;;9.50;;
60610;SDS011;46439;51.164;13.572;2023-05-21T10:39:55;11.50;;;10.10;;
60610;SDS011;46439;51.164;13.572;2023-05-21T10:42:25;13.50;;;10.00;;
60610;SDS011;46439;51.164;13.572;2023-05-21T10:45:25;15.20;;;12.00;;
60610;SDS011;46439;51.164;13.572;2023-05-21T10:48:27;17.30;;;11.30;;
60610;SDS011;46439;51.164;13.572;2023-05-21T10:51:18;13.90;;;11.20;;
60610;SDS011;46439;51.164;13.572;2023-05-21T10:54:01;13.60;;;11.40;;
60610;SDS011;46439;51.164;13.572;2023-05-21T10:56:47;14.00;;;11.80;;
60610;SDS011;46439;51.164;13.572;2023-05-21T10:59:27;14.50;;;11.20;;
60610;SDS011;46439;51.164;13.572;2023-05-21T11:02:05;14.20;;;12.10;;
60610;SDS011;46439;51.164;13.572;2023-05-21T11:04:35;14.00;;;11.50;;
60610;SDS011;46439;51.164;13.572;2023-05-21T11:07:08;15.80;;;12.20;;
60610;SDS011;46439;51.164;13.572;2023-05-21T11:09:36;14.90;;;13.10;;
60610;SDS011;46439;51.164;13.572;2023-05-21T11:12:06;15.60;;;11.80;;
60610;SDS011;46439;51.164;13.572;2023-05-21T11:14:36;16.10;;;12.30;;
60610;SDS011;46439;51.164;13.572;2023-05-21T11:17:10;13.70;;;12.10;;
60610;SDS011;46439;51.164;13.572;2023-05-21T11:19:41;14.30;;;11.70;;
60610;SDS011;46439;51.164;13.572;2023-05-21T11:22:22;18.00;;;11.60;;
60610;SDS011;46439;51.164;13.572;2023-05-21T11:24:52;14.00;;;12.30;;
60610;SDS011;46439;51.164;13.572;2023-05-21T11:27:32;14.70;;;12.00;;
60610;SDS011;46439;51.164;13.572;2023-05-21T11:30:04;12.90;;;10.40;;
60610;SDS011;46439;51.164;13.572;2023-05-21T11:32:37;9.40;;;8.40;;
60610;SDS011;46439;51.164;13.572;2023-05-21T11:35:27;11.20;;;8.30;;
60610;SDS011;46439;51.164;13.572;2023-05-21T11:37:55;9.00;;;7.60;;
60610;SDS011;46439;51.164;13.572;2023-05-21T11:40:25;8.60;;;6.90;;
60610;SDS011;46439;51.164;13.572;2023-05-21T11:42:55;10.00;;;7.50;;
60610;SDS011;46439;51.164;13.572;2023-05-21T11:45:26;9.40;;;7.50;;
60610;SDS011;46439;51.164;13.572;2023-05-21T11:47:56;11.20;;;8.70;;
60610;SDS011;46439;51.164;13.572;2023-05-21T11:50:25;12.70;;;9.00;;
60610;SDS011;46439;51.164;13.572;2023-05-21T11:52:56;9.90;;;8.80;;
60610;SDS011;46439;51.164;13.572;2023-05-21T11:55:25;12.20;;;10.10;;
60610;SDS011;46439;51.164;13.572;2023-05-21T11:57:54;11.10;;;9.10;;
60610;SDS011;46439;51.164;13.572;2023-05-21T12:00:24;12.30;;;9.00;;
60610;SDS011;46439;51.164;13.572;2023-05-21T12:02:53;10.30;;;7.50;;
60610;SDS011;46439;51.164;13.572;2023-05-21T12:05:22;9.30;;;7.90;;
60610;SDS011;46439;51.164;13.572;2023-05-21T12:07:52;9.90;;;8.10;;
60610;SDS011;46439;51.164;13.572;2023-05-21T12:10:22;11.40;;;8.10;;
60610;SDS011;46439;51.164;13.572;2023-05-21T12:12:50;11.60;;;8.40;;
60610;SDS011;46439;51.164;13.572;2023-05-21T12:15:19;11.40;;;9.10;;
60610;SDS011;46439;51.164;13.572;2023-05-21T12:17:49;9.70;;;8.70;;
60610;SDS011;46439;51.164;13.572;2023-05-21T12:20:18;10.10;;;9.00;;
60610;SDS011;46439;51.164;13.572;2023-05-21T12:22:48;13.00;;;9.90;;
60610;SDS011;46439;51.164;13.572;2023-05-21T12:25:18;12.30;;;9.30;;
60610;SDS011;46439;51.164;13.572;2023-05-21T12:27:47;10.90;;;8.80;;
60610;SDS011;46439;51.164;13.572;2023-05-21T12:30:23;12.70;;;9.40;;
60610;SDS011;46439;51.164;13.572;2023-05-21T12:32:52;11.20;;;7.90;;
60610;SDS011;46439;51.164;13.572;2023-05-21T12:37:50;7.80;;;6.40;;
60610;SDS011;46439;51.164;13.572;2023-05-21T12:40:19;9.30;;;6.40;;
60610;SDS011;46439;51.164;13.572;2023-05-21T12:42:48;7.90;;;6.20;;
60610;SDS011;46439;51.164;13.572;2023-05-21T12:45:17;10.50;;;6.60;;
60610;SDS011;46439;51.164;13.572;2023-05-21T12:47:48;6.90;;;6.00;;
60610;SDS011;46439;51.164;13.572;2023-05-21T12:50:21;7.70;;;6.50;;
60610;SDS011;46439;51.164;13.572;2023-05-21T12:52:52;10.40;;;6.80;;
60610;SDS011;46439;51.164;13.572;2023-05-21T12:55:22;7.80;;;7.00;;
60610;SDS011;46439;51.164;13.572;2023-05-21T12:57:57;11.60;;;7.20;;
60610;SDS011;46439;51.164;13.572;2023-05-21T13:00:30;8.90;;;6.40;;
60610;SDS011;46439;51.164;13.572;2023-05-21T13:02:59;9.20;;;7.00;;
60610;SDS011;46439;51.164;13.572;2023-05-21T13:05:30;9.10;;;7.60;;
60610;SDS011;46439;51.164;13.572;2023-05-21T13:07:58;11.00;;;7.70;;
60610;SDS011;46439;51.164;13.572;2023-05-21T13:10:27;10.50;;;7.90;;
60610;SDS011;46439;51.164;13.572;2023-05-21T13:12:55;9.20;;;7.60;;
60610;SDS011;46439;51.164;13.572;2023-05-21T13:15:24;10.00;;;7.90;;
60610;SDS011;46439;51.164;13.572;2023-05-21T13:17:53;8.60;;;7.30;;
60610;SDS011;46439;51.164;13.572;2023-05-21T13:20:22;9.80;;;7.70;;
60610;SDS011;46439;51.164;13.572;2023-05-21T13:22:52;9.60;;;7.30;;
60610;SDS011;46439;51.164;13.572;2023-05-21T13:25:22;11.70;;;8.90;;
60610;SDS011;46439;51.164;13.572;2023-05-21T13:27:54;10.50;;;8.60;;
60610;SDS011;46439;51.164;13.572;2023-05-21T13:30:23;12.90;;;8.80;;
60610;SDS011;46439;51.164;13.572;2023-05-21T13:32:52;10.50;;;8.20;;
60610;SDS011;46439;51.164;13.572;2023-05-21T13:35:21;10.20;;;8.00;;
60610;SDS011;46439;51.164;13.572;2023-05-21T13:37:49;13.10;;;8.70;;
60610;SDS011;46439;51.164;13.572;2023-05-21T13:40:18;10.70;;;9.40;;
60610;SDS011;46439;51.164;13.572;2023-05-21T13:42:47;10.30;;;9.00;;
60610;SDS011;46439;51.164;13.572;2023-05-21T13:45:17;11.00;;;9.60;;
60610;SDS011;46439;51.164;13.572;2023-05-21T13:47:46;10.60;;;9.20;;
60610;SDS011;46439;51.164;13.572;2023-05-21T13:50:15;10.50;;;8.90;;
60610;SDS011;46439;51.164;13.572;2023-05-21T13:52:44;13.00;;;9.20;;
60610;SDS011;46439;51.164;13.572;2023-05-21T13:55:12;11.60;;;8.70;;
60610;SDS011;46439;51.164;13.572;2023-05-21T13:57:41;10.90;;;8.80;;
60610;SDS011;46439;51.164;13.572;2023-05-21T14:00:11;10.80;;;8.50;;
60610;SDS011;46439;51.164;13.572;2023-05-21T14:02:41;10.90;;;9.40;;
60610;SDS011;46439;51.164;13.572;2023-05-21T14:05:10;12.60;;;9.00;;
60610;SDS011;46439;51.164;13.572;2023-05-21T14:07:39;9.70;;;8.50;;
60610;SDS011;46439;51.164;13.572;2023-05-21T14:10:08;11.10;;;9.00;;
60610;SDS011;46439;51.164;13.572;2023-05-21T14:12:37;9.10;;;7.40;;
60610;SDS011;46439;51.164;13.572;2023-05-21T14:15:07;7.70;;;6.90;;
60610;SDS011;46439;51.164;13.572;2023-05-21T14:17:37;7.80;;;6.30;;
60610;SDS011;46439;51.164;13.572;2023-05-21T14:20:08;7.60;;;6.20;;
60610;SDS011;46439;51.164;13.572;2023-05-21T14:22:37;7.10;;;5.10;;
60610;SDS011;46439;51.164;13.572;2023-05-21T14:25:07;7.30;;;4.70;;
60610;SDS011;46439;51.164;13.572;2023-05-21T14:27:36;7.70;;;6.00;;
60610;SDS011;46439;51.164;13.572;2023-05-21T14:30:06;6.50;;;5.70;;
60610;SDS011;46439;51.164;13.572;2023-05-21T14:32:35;6.70;;;5.60;;
60610;SDS011;46439;51.164;13.572;2023-05-21T14:35:05;8.60;;;5.30;;